Time;durP1;ratioP1;P1;durP2;ratioP2;P2;SDS_P1;SDS_P2;PMS_P1;PMS_P2;Temp;Humidity;BMP_temperature;BMP_pressure;BME280_temperature;BME280_humidity;BME280_pressure;Samples;Min_cycle;Max_cycle;Signal;HPM_P1;HPM_P2
2024/02/18 00:01:22;;;;;;;;;;;;;;;17.93;57.46;102104.97;7380039;19;1884;-40
2024/02/18 00:03:51;;;;;;;;;;;;;;;17.86;57.81;102085.75;7380659;19;1241;-39
2024/02/18 00:06:22;;;;;;;;;;;;;;;17.83;57.76;102084.13;7380015;19;1831;-40
2024/02/18 00:08:50;;;;;;;;;;;;;;;17.77;57.83;102089.84;7380639;19;1942;-40
2024/02/18 00:11:18;;;;;;;;;;;;;;;17.80;57.83;102088.78;7379402;19;1787;-39
2024/02/18 00:13:46;;;;;;;;;;;;;;;17.72;57.89;102080.38;7380630;19;1587;-39
2024/02/18 00:16:15;;;;;;;;;;;;;;;17.74;57.98;102089.16;7380727;19;1554;-39
2024/02/18 00:18:43;;;;;;;;;;;;;;;17.63;58.25;102089.84;7364947;19;1459;-39
2024/02/18 00:21:17;;;;;;;;;;;;;;;17.64;58.28;102088.88;7377768;19;1838;-35
2024/02/18 00:23:48;;;;;;;;;;;;;;;17.61;58.29;102084.56;7377183;19;1463;-36
2024/02/18 00:26:16;;;;;;;;;;;;;;;17.65;58.45;102098.63;7380817;19;1320;-36
2024/02/18 00:28:45;;;;;;;;;;;;;;;17.41;59.03;102090.28;7384925;19;1414;-39
2024/02/18 00:31:13;;;;;;;;;;;;;;;17.49;59.01;102102.22;7381469;19;1713;-40
2024/02/18 00:33:42;;;;;;;;;;;;;;;17.66;58.72;102093.16;7386035;19;1379;-35
2024/02/18 00:36:10;;;;;;;;;;;;;;;18.02;58.05;102083.81;7387689;19;1563;-35
2024/02/18 00:38:39;;;;;;;;;;;;;;;18.31;57.38;102094.50;7393085;19;1412;-40
2024/02/18 00:41:10;;;;;;;;;;;;;;;18.38;56.89;102084.25;7393208;19;1030;-36
2024/02/18 00:43:39;;;;;;;;;;;;;;;18.40;57.19;102083.22;7393931;19;1237;-34
2024/02/18 00:46:07;;;;;;;;;;;;;;;18.06;57.60;102089.84;7392220;19;1763;-35
2024/02/18 00:48:36;;;;;;;;;;;;;;;17.77;58.21;102076.47;7391758;19;1563;-35
2024/02/18 00:51:04;;;;;;;;;;;;;;;17.79;58.35;102087.94;7392411;19;1672;-39
2024/02/18 00:53:33;;;;;;;;;;;;;;;17.80;58.44;102078.94;7392656;19;1188;-34
2024/02/18 00:56:02;;;;;;;;;;;;;;;17.70;58.74;102067.09;7394273;19;1725;-34
2024/02/18 00:58:33;;;;;;;;;;;;;;;17.69;58.63;102076.09;7391204;19;1205;-35
2024/02/18 01:01:02;;;;;;;;;;;;;;;17.61;58.90;102062.31;7394003;19;1460;-40
2024/02/18 01:03:31;;;;;;;;;;;;;;;17.51;59.05;102072.72;7390515;19;1862;-34
2024/02/18 01:05:59;;;;;;;;;;;;;;;17.63;58.90;102068.44;7392490;19;1925;-34
2024/02/18 01:08:27;;;;;;;;;;;;;;;17.95;58.37;102076.31;7391444;19;1534;-34
2024/02/18 01:10:56;;;;;;;;;;;;;;;18.20;57.58;102065.72;7393207;19;1682;-35
2024/02/18 01:13:24;;;;;;;;;;;;;;;18.36;57.34;102083.50;7392609;19;1240;-34
2024/02/18 01:15:55;;;;;;;;;;;;;;;18.43;57.04;102076.78;7393149;19;1410;-34
2024/02/18 01:18:23;;;;;;;;;;;;;;;18.23;57.45;102072.72;7375998;19;1855;-35
2024/02/18 01:20:52;;;;;;;;;;;;;;;17.85;58.01;102076.03;7389845;19;1744;-40
2024/02/18 01:23:20;;;;;;;;;;;;;;;17.76;58.64;102072.06;7387093;19;1847;-36
2024/02/18 01:25:48;;;;;;;;;;;;;;;17.69;58.86;102060.03;7391214;19;1397;-35
2024/02/18 01:28:16;;;;;;;;;;;;;;;17.59;59.07;102075.78;7392197;19;1835;-34
2024/02/18 01:30:45;;;;;;;;;;;;;;;17.53;59.18;102064.59;7391127;19;1404;-35
2024/02/18 01:33:16;;;;;;;;;;;;;;;17.52;59.00;102058.38;7391065;19;1197;-40
2024/02/18 01:35:44;;;;;;;;;;;;;;;17.54;59.27;102063.66;7392675;19;1272;-35
2024/02/18 01:38:13;;;;;;;;;;;;;;;17.64;58.97;102068.31;7392212;19;1528;-35
2024/02/18 01:40:41;;;;;;;;;;;;;;;17.99;58.25;102065.31;7392043;19;1273;-35
2024/02/18 01:43:09;;;;;;;;;;;;;;;18.21;57.77;102059.44;7385860;19;1854;-34
2024/02/18 01:45:38;;;;;;;;;;;;;;;18.29;57.48;102054.44;7392163;19;1227;-40
2024/02/18 01:48:07;;;;;;;;;;;;;;;18.25;57.61;102068.97;7389548;19;1282;-34
2024/02/18 01:50:38;;;;;;;;;;;;;;;17.90;57.81;102057.84;7388741;19;1565;-34
2024/02/18 01:53:07;;;;;;;;;;;;;;;17.77;58.76;102067.59;7391850;19;1276;-34
2024/02/18 01:55:36;;;;;;;;;;;;;;;17.75;58.74;102054.28;7392148;19;1002;-35
2024/02/18 01:58:04;;;;;;;;;;;;;;;17.76;58.75;102056.00;7391084;19;1757;-40
2024/02/18 02:00:33;;;;;;;;;;;;;;;17.67;58.91;102064.63;7390576;19;1843;-34
2024/02/18 02:03:01;;;;;;;;;;;;;;;17.58;59.11;102058.00;7388344;19;1893;-34
2024/02/18 02:05:31;;;;;;;;;;;;;;;17.49;59.46;102039.88;7390210;19;1320;-39
2024/02/18 02:08:03;;;;;;;;;;;;;;;17.65;59.02;102035.28;7390610;19;1315;-34
2024/02/18 02:10:32;;;;;;;;;;;;;;;18.17;57.92;102051.72;7389838;19;1336;-35
2024/02/18 02:13:00;;;;;;;;;;;;;;;18.93;56.28;102056.53;7391036;19;1848;-39
2024/02/18 02:15:29;;;;;;;;;;;;;;;19.36;55.30;102040.19;7390916;19;1273;-33
2024/02/18 02:17:57;;;;;;;;;;;;;;;19.63;54.52;102044.56;7374308;19;1652;-34
2024/02/18 02:20:26;;;;;;;;;;;;;;;19.73;54.37;102037.59;7388068;19;1724;-40
2024/02/18 02:22:55;;;;;;;;;;;;;;;19.67;54.45;102048.75;7387639;19;1865;-34
2024/02/18 02:25:26;;;;;;;;;;;;;;;19.63;54.73;102037.38;7390806;19;1478;-35
2024/02/18 02:27:59;;;;;;;;;;;;;;;19.59;54.84;102035.88;7388992;19;1836;-34
2024/02/18 02:30:30;;;;;;;;;;;;;;;19.64;54.92;102054.34;7387322;19;1424;-34
2024/02/18 02:32:59;;;;;;;;;;;;;;;19.67;54.90;102054.13;7387399;19;1380;-40
2024/02/18 02:35:28;;;;;;;;;;;;;;;19.64;54.81;102038.25;7388131;19;1575;-35
2024/02/18 02:37:58;;;;;;;;;;;;;;;19.68;54.64;102045.97;7389408;19;1556;-35
2024/02/18 02:40:26;;;;;;;;;;;;;;;19.70;54.70;102048.53;7387114;19;1669;-34
2024/02/18 02:42:54;;;;;;;;;;;;;;;19.74;54.77;102050.06;7387691;19;1851;-40
2024/02/18 02:45:23;;;;;;;;;;;;;;;19.80;54.78;102055.00;7389969;19;1542;-34
2024/02/18 02:47:54;;;;;;;;;;;;;;;19.77;54.64;102054.34;7389297;19;1581;-34
2024/02/18 02:50:22;;;;;;;;;;;;;;;19.70;54.71;102063.81;7389574;19;1220;-35
2024/02/18 02:52:50;;;;;;;;;;;;;;;19.44;55.55;102077.22;7389480;19;1940;-33
2024/02/18 02:55:19;;;;;;;;;;;;;;;19.33;55.69;102067.22;7388945;19;1554;-35
2024/02/18 02:57:48;;;;;;;;;;;;;;;19.52;55.33;102065.91;7389145;19;1855;-35
2024/02/18 03:00:17;;;;;;;;;;;;;;;19.67;55.01;102046.06;7388267;19;1272;-41
2024/02/18 03:02:45;;;;;;;;;;;;;;;19.75;54.56;102067.03;7386785;19;2775;-39
2024/02/18 03:05:16;;;;;;;;;;;;;;;19.74;54.83;102076.91;7387043;19;1146;-38
2024/02/18 03:07:44;;;;;;;;;;;;;;;19.78;54.79;102093.66;7387908;19;1669;-34
2024/02/18 03:10:13;;;;;;;;;;;;;;;19.71;54.96;102071.75;7386853;19;1328;-35
2024/02/18 03:12:41;;;;;;;;;;;;;;;19.71;54.95;102082.47;7386946;19;1275;-38
2024/02/18 03:15:10;;;;;;;;;;;;;;;19.66;54.96;102061.31;7389266;19;1137;-34
2024/02/18 03:17:38;;;;;;;;;;;;;;;19.71;54.77;102061.00;7370841;19;1576;-39
2024/02/18 03:20:09;;;;;;;;;;;;;;;19.79;54.61;102074.75;7386981;19;1665;-35
2024/02/18 03:22:40;;;;;;;;;;;;;;;19.83;54.60;102086.13;7386854;19;1838;-40
2024/02/18 03:25:09;;;;;;;;;;;;;;;19.83;54.51;102076.25;7388034;19;1553;-33
2024/02/18 03:27:37;;;;;;;;;;;;;;;19.82;54.47;102069.16;7388599;19;1487;-34
2024/02/18 03:30:06;;;;;;;;;;;;;;;19.90;54.53;102073.16;7388713;19;1108;-35
2024/02/18 03:32:35;;;;;;;;;;;;;;;19.85;54.57;102060.88;7386949;19;1513;-34
2024/02/18 03:35:04;;;;;;;;;;;;;;;19.88;54.59;102072.41;7387406;19;1829;-35
2024/02/18 03:37:32;;;;;;;;;;;;;;;19.75;54.96;102061.66;7386644;19;1498;-33
2024/02/18 03:40:05;;;;;;;;;;;;;;;19.77;54.86;102068.63;7387772;19;1571;-34
2024/02/18 03:42:33;;;;;;;;;;;;;;;19.86;54.70;102065.31;7387162;19;1846;-33
2024/02/18 03:45:01;;;;;;;;;;;;;;;19.89;54.54;102068.72;7388154;19;1545;-35
2024/02/18 03:47:30;;;;;;;;;;;;;;;19.92;54.44;102064.00;7387401;19;1494;-39
2024/02/18 03:49:58;;;;;;;;;;;;;;;19.86;54.40;102046.50;7387780;19;1741;-39
2024/02/18 03:52:26;;;;;;;;;;;;;;;19.85;54.60;102060.03;7386584;19;1430;-39
2024/02/18 03:54:55;;;;;;;;;;;;;;;19.85;54.66;102095.78;7388484;19;1835;-39
2024/02/18 03:57:26;;;;;;;;;;;;;;;19.86;54.47;102067.97;7389319;19;1681;-41
2024/02/18 03:59:54;;;;;;;;;;;;;;;19.74;54.72;102058.13;7386654;19;1333;-39
2024/02/18 04:02:22;;;;;;;;;;;;;;;19.19;55.85;102076.19;7388055;19;1852;-39
2024/02/18 04:04:51;;;;;;;;;;;;;;;18.78;57.14;102092.34;7387901;19;1421;-39
2024/02/18 04:07:19;;;;;;;;;;;;;;;18.55;57.65;102089.38;7387370;19;1379;-39
2024/02/18 04:09:47;;;;;;;;;;;;;;;18.43;57.97;102087.50;7389522;19;1496;-41
2024/02/18 04:12:16;;;;;;;;;;;;;;;18.86;56.88;102079.34;7393557;19;1047;-41
2024/02/18 04:14:47;;;;;;;;;;;;;;;19.03;56.51;102087.09;7396514;19;1837;-35
2024/02/18 04:17:15;;;;;;;;;;;;;;;19.27;55.91;102092.63;7391927;19;1534;-35
2024/02/18 04:19:43;;;;;;;;;;;;;;;19.41;55.75;102094.34;7378038;19;2400;-34
2024/02/18 04:22:12;;;;;;;;;;;;;;;19.47;55.54;102088.56;7392828;19;1523;-33
2024/02/18 04:24:41;;;;;;;;;;;;;;;19.40;55.64;102078.41;7393902;19;1844;-34
2024/02/18 04:27:10;;;;;;;;;;;;;;;19.34;55.83;102094.88;7395451;19;1827;-38
2024/02/18 04:29:39;;;;;;;;;;;;;;;18.86;56.77;102090.94;7394194;19;1410;-35
2024/02/18 04:32:11;;;;;;;;;;;;;;;18.58;57.46;102097.22;7393878;19;1918;-33
2024/02/18 04:34:39;;;;;;;;;;;;;;;18.42;57.84;102107.19;7394128;19;1465;-38
2024/02/18 04:37:08;;;;;;;;;;;;;;;18.17;58.32;102148.94;7393630;19;1568;-34
2024/02/18 04:39:36;;;;;;;;;;;;;;;18.28;58.00;102106.28;7390181;19;1403;-34
2024/02/18 04:42:06;;;;;;;;;;;;;;;18.60;57.39;102097.09;7393219;19;1197;-34
2024/02/18 04:44:34;;;;;;;;;;;;;;;18.85;56.99;102104.44;7390488;19;1868;-34
2024/02/18 04:47:02;;;;;;;;;;;;;;;19.08;56.29;102101.06;7391819;19;1534;-39
2024/02/18 04:49:33;;;;;;;;;;;;;;;19.25;56.13;102101.75;7390094;19;1391;-35
2024/02/18 04:52:03;;;;;;;;;;;;;;;19.24;55.95;102106.25;7391774;19;1411;-45
2024/02/18 04:54:33;;;;;;;;;;;;;;;19.32;55.85;102102.19;7391881;19;1368;-35
2024/02/18 04:57:01;;;;;;;;;;;;;;;19.27;55.90;102118.59;7391297;19;1716;-35
2024/02/18 04:59:29;;;;;;;;;;;;;;;19.18;56.00;102098.63;7391208;19;1337;-34
2024/02/18 05:01:58;;;;;;;;;;;;;;;19.12;56.26;102100.84;7390564;19;1426;-35
2024/02/18 05:04:29;;;;;;;;;;;;;;;19.05;56.19;102106.63;7391732;19;1838;-36
2024/02/18 05:07:01;;;;;;;;;;;;;;;19.03;56.37;102113.91;7392597;19;2130;-34
2024/02/18 05:09:29;;;;;;;;;;;;;;;19.11;56.42;102120.59;7389991;19;2546;-34
2024/02/18 05:11:57;;;;;;;;;;;;;;;18.99;56.38;102111.56;7392478;19;1276;-35
2024/02/18 05:14:25;;;;;;;;;;;;;;;19.04;56.44;102123.69;7389685;19;1820;-41
2024/02/18 05:16:55;;;;;;;;;;;;;;;18.97;56.51;102111.66;7393229;19;1297;-34
2024/02/18 05:19:24;;;;;;;;;;;;;;;18.99;56.57;102120.44;7378230;19;1276;-34
2024/02/18 05:21:53;;;;;;;;;;;;;;;18.96;56.66;102112.63;7389580;19;1910;-41
2024/02/18 05:24:24;;;;;;;;;;;;;;;19.02;56.46;102114.91;7387996;19;1894;-34
2024/02/18 05:26:52;;;;;;;;;;;;;;;19.03;56.32;102124.63;7392454;19;1522;-41
2024/02/18 05:29:22;;;;;;;;;;;;;;;18.99;56.34;102116.91;7392374;19;1622;-40
2024/02/18 05:31:50;;;;;;;;;;;;;;;18.94;56.62;102125.28;7391280;19;1324;-35
2024/02/18 05:34:19;;;;;;;;;;;;;;;18.72;56.42;102085.59;7390826;19;1626;-41
2024/02/18 05:36:47;;;;;;;;;;;;;;;19.02;56.45;102132.78;7391332;19;1651;-35
2024/02/18 05:39:16;;;;;;;;;;;;;;;18.99;56.49;102125.81;7392061;19;1166;-36
2024/02/18 05:41:47;;;;;;;;;;;;;;;19.05;56.35;102130.75;7391465;19;1415;-40
2024/02/18 05:44:15;;;;;;;;;;;;;;;19.03;56.42;102143.41;7387850;19;1850;-39
2024/02/18 05:46:43;;;;;;;;;;;;;;;19.02;56.67;102147.06;7391535;19;1398;-40
2024/02/18 05:49:12;;;;;;;;;;;;;;;18.94;57.00;102136.00;7390080;19;1725;-41
2024/02/18 05:51:40;;;;;;;;;;;;;;;18.91;57.13;102154.09;7390370;19;1426;-35
2024/02/18 05:54:08;;;;;;;;;;;;;;;18.86;57.02;102144.53;7389874;19;1595;-36
2024/02/18 05:56:37;;;;;;;;;;;;;;;18.79;57.04;102137.84;7390216;19;1658;-34
2024/02/18 05:59:08;;;;;;;;;;;;;;;18.84;57.11;102140.22;7391256;19;1629;-34
2024/02/18 06:01:36;;;;;;;;;;;;;;;18.86;57.00;102147.22;7390073;19;1530;-34
2024/02/18 06:04:05;;;;;;;;;;;;;;;18.89;57.08;102143.47;7386861;19;1853;-35
2024/02/18 06:06:33;;;;;;;;;;;;;;;19.05;56.95;102141.47;7323238;19;13897;-35
2024/02/18 06:09:05;;;;;;;;;;;;;;;19.14;57.76;102149.88;7388040;19;1148;-34
2024/02/18 06:11:33;;;;;;;;;;;;;;;19.13;58.59;102150.84;7390347;19;1218;-41
2024/02/18 06:14:01;;;;;;;;;;;;;;;19.14;58.67;102160.59;7386800;19;1552;-40
2024/02/18 06:16:32;;;;;;;;;;;;;;;19.15;58.59;102165.88;6869173;19;9999737;-41
2024/02/18 06:19:01;;;;;;;;;;;;;;;19.16;58.67;102150.63;7369203;19;1691;-40
2024/02/18 06:21:29;;;;;;;;;;;;;;;19.20;58.67;102144.97;7380569;19;1426;-43
2024/02/18 06:23:59;;;;;;;;;;;;;;;19.17;58.77;102152.38;7381637;19;1857;-40
2024/02/18 06:26:27;;;;;;;;;;;;;;;19.23;58.50;102154.63;7381270;19;1842;-41
2024/02/18 06:28:55;;;;;;;;;;;;;;;19.24;58.34;102149.16;7382655;19;1167;-40
2024/02/18 06:31:24;;;;;;;;;;;;;;;19.27;58.45;102157.00;7384526;19;1764;-41
2024/02/18 06:33:55;;;;;;;;;;;;;;;19.28;58.46;102160.56;7381544;19;1901;-35
2024/02/18 06:36:25;;;;;;;;;;;;;;;19.30;58.32;102152.38;7383165;19;1487;-41
2024/02/18 06:38:53;;;;;;;;;;;;;;;19.34;58.44;102161.94;7383020;19;1767;-35
2024/02/18 06:41:21;;;;;;;;;;;;;;;19.36;58.44;102160.00;7388740;19;1037;-34
2024/02/18 06:43:50;;;;;;;;;;;;;;;19.39;58.17;102167.88;7382612;19;1835;-35
2024/02/18 06:46:18;;;;;;;;;;;;;;;19.41;58.23;102166.78;7387821;19;1521;-35
2024/02/18 06:48:48;;;;;;;;;;;;;;;19.45;58.20;102172.81;7387060;19;1560;-35
2024/02/18 06:51:19;;;;;;;;;;;;;;;19.52;58.36;102174.13;7376190;19;2433;-35
2024/02/18 06:53:48;;;;;;;;;;;;;;;19.59;58.24;102174.56;7381439;19;1504;-35
2024/02/18 06:56:19;;;;;;;;;;;;;;;19.60;58.31;102182.50;7381033;19;1398;-34
2024/02/18 06:58:48;;;;;;;;;;;;;;;19.56;58.34;102181.00;7381418;19;1402;-35
2024/02/18 07:01:19;;;;;;;;;;;;;;;19.53;58.31;102180.34;7380730;19;1378;-34
2024/02/18 07:03:47;;;;;;;;;;;;;;;19.58;58.28;102179.06;7378014;19;1863;-34
2024/02/18 07:06:17;;;;;;;;;;;;;;;19.52;58.16;102182.16;7382235;19;1417;-34
2024/02/18 07:08:49;;;;;;;;;;;;;;;19.56;58.25;102177.47;7383589;19;1624;-35
2024/02/18 07:11:17;;;;;;;;;;;;;;;19.56;58.45;102183.69;7383381;19;1509;-34
2024/02/18 07:13:46;;;;;;;;;;;;;;;19.59;58.24;102190.66;7380580;19;1564;-34
2024/02/18 07:16:14;;;;;;;;;;;;;;;19.65;58.02;102184.88;7381612;19;2264;-35
2024/02/18 07:18:42;;;;;;;;;;;;;;;19.61;58.08;102194.09;7368223;19;1603;-34
2024/02/18 07:21:14;;;;;;;;;;;;;;;19.62;58.12;102190.47;7381064;19;1307;-35
2024/02/18 07:23:42;;;;;;;;;;;;;;;19.65;58.06;102200.97;7380474;19;1847;-35
2024/02/18 07:26:14;;;;;;;;;;;;;;;19.65;58.18;102198.28;7381276;19;1426;-34
2024/02/18 07:28:43;;;;;;;;;;;;;;;19.66;58.06;102181.22;7382761;19;1179;-35
2024/02/18 07:31:11;;;;;;;;;;;;;;;19.60;58.49;102198.59;7385834;19;1211;-31
2024/02/18 07:33:39;;;;;;;;;;;;;;;19.30;59.26;102200.66;7382868;19;1809;-34
2024/02/18 07:36:09;;;;;;;;;;;;;;;19.18;59.61;102205.00;7381561;19;1286;-38
2024/02/18 07:38:37;;;;;;;;;;;;;;;19.79;58.06;102211.63;7382574;19;1572;-39
2024/02/18 07:41:06;;;;;;;;;;;;;;;19.81;57.98;102222.28;7388258;19;1390;-41
2024/02/18 07:43:37;;;;;;;;;;;;;;;20.02;57.16;102214.56;7384364;19;1845;-37
2024/02/18 07:46:05;;;;;;;;;;;;;;;20.20;56.69;102207.91;7381928;19;2119;-34
2024/02/18 07:48:35;;;;;;;;;;;;;;;20.22;56.71;102210.50;7386529;19;1568;-34
2024/02/18 07:51:04;;;;;;;;;;;;;;;20.19;56.44;102198.16;7386610;19;1473;-39
2024/02/18 07:53:32;;;;;;;;;;;;;;;20.04;56.61;102202.75;7383654;19;1399;-39
2024/02/18 07:56:00;;;;;;;;;;;;;;;19.93;56.76;102212.53;7382323;19;1356;-41
2024/02/18 07:58:29;;;;;;;;;;;;;;;19.87;57.08;102211.13;7382908;19;1398;-39
2024/02/18 08:01:00;;;;;;;;;;;;;;;19.81;56.79;102207.03;7386501;19;1436;-39
2024/02/18 08:03:28;;;;;;;;;;;;;;;19.82;56.76;102208.75;7384039;19;1524;-40
2024/02/18 08:05:56;;;;;;;;;;;;;;;19.80;56.61;102199.94;7383965;19;1841;-40
2024/02/18 08:08:25;;;;;;;;;;;;;;;19.80;56.40;102191.06;7386019;19;1575;-34
2024/02/18 08:10:53;;;;;;;;;;;;;;;19.80;56.83;102201.78;7383459;19;1418;-35
2024/02/18 08:13:21;;;;;;;;;;;;;;;19.78;56.99;102196.50;7381652;19;1453;-33
2024/02/18 08:15:50;;;;;;;;;;;;;;;19.76;57.20;102192.22;7384404;19;1248;-40
2024/02/18 08:18:21;;;;;;;;;;;;;;;19.68;57.46;102179.31;7381136;19;1422;-34
2024/02/18 08:20:49;;;;;;;;;;;;;;;19.68;57.36;102190.03;7369183;19;1414;-41
2024/02/18 08:23:18;;;;;;;;;;;;;;;19.75;57.38;102194.03;7383223;19;1418;-36
2024/02/18 08:25:48;;;;;;;;;;;;;;;19.78;57.16;102192.97;7384828;19;1857;-35
2024/02/18 08:28:16;;;;;;;;;;;;;;;19.77;57.24;102185.88;7385344;19;1461;-32
2024/02/18 08:30:45;;;;;;;;;;;;;;;19.82;57.21;102181.91;7383261;19;1509;-35
2024/02/18 08:33:13;;;;;;;;;;;;;;;19.83;57.17;102186.31;7384779;19;1438;-34
2024/02/18 08:35:44;;;;;;;;;;;;;;;19.89;57.22;102181.47;7384028;19;1426;-35
2024/02/18 08:38:12;;;;;;;;;;;;;;;20.03;57.42;102167.94;7384045;19;1411;-35
2024/02/18 08:40:40;;;;;;;;;;;;;;;19.99;57.27;102180.72;7384242;19;1209;-34
2024/02/18 08:43:09;;;;;;;;;;;;;;;20.02;57.17;102185.03;7381575;19;1191;-35
2024/02/18 08:45:37;;;;;;;;;;;;;;;19.89;57.62;102192.22;7379410;19;1865;-35
2024/02/18 08:48:06;;;;;;;;;;;;;;;19.86;57.55;102209.41;7380786;19;1470;-34
2024/02/18 08:50:34;;;;;;;;;;;;;;;20.01;57.17;102207.47;7381939;19;1497;-35
2024/02/18 08:53:05;;;;;;;;;;;;;;;19.96;56.86;102207.81;7382130;19;1319;-35
2024/02/18 08:55:33;;;;;;;;;;;;;;;19.66;56.24;102213.44;7379554;19;1518;-34
2024/02/18 08:58:02;;;;;;;;;;;;;;;19.50;56.30;102210.06;7384544;19;1197;-34
2024/02/18 09:00:30;;;;;;;;;;;;;;;19.44;56.49;102204.16;7384710;19;1691;-34
2024/02/18 09:02:59;;;;;;;;;;;;;;;19.38;56.83;102207.25;7384676;19;1226;-34
2024/02/18 09:05:28;;;;;;;;;;;;;;;19.44;56.67;102201.47;7384625;19;1870;-34
2024/02/18 09:07:56;;;;;;;;;;;;;;;19.41;56.95;102220.44;7385306;19;1921;-34
2024/02/18 09:10:27;;;;;;;;;;;;;;;19.44;56.85;102201.47;7385399;19;1502;-35
2024/02/18 09:13:00;;;;;;;;;;;;;;;19.42;56.96;102216.81;7384656;19;1477;-35
2024/02/18 09:15:28;;;;;;;;;;;;;;;19.45;56.91;102211.22;7383828;19;1159;-35
2024/02/18 09:17:57;;;;;;;;;;;;;;;19.50;57.03;102220.78;7387018;19;1501;-35
2024/02/18 09:20:25;;;;;;;;;;;;;;;19.46;56.99;102218.31;7372414;19;2536;-36
2024/02/18 09:22:53;;;;;;;;;;;;;;;19.50;57.00;102210.06;7390086;19;1461;-35
2024/02/18 09:25:22;;;;;;;;;;;;;;;19.43;56.95;102218.50;7390157;19;1853;-36
2024/02/18 09:27:53;;;;;;;;;;;;;;;19.35;57.35;102214.63;7387731;19;1783;-35
2024/02/18 09:30:21;;;;;;;;;;;;;;;19.38;57.50;102219.81;7391956;19;1382;-36
2024/02/18 09:32:49;;;;;;;;;;;;;;;19.35;57.34;102214.63;7389556;19;1414;-36
2024/02/18 09:35:18;;;;;;;;;;;;;;;19.42;57.40;102216.81;7390105;19;1465;-35
2024/02/18 09:37:46;;;;;;;;;;;;;;;19.43;57.48;102228.38;7390285;19;1422;-35
2024/02/18 09:40:15;;;;;;;;;;;;;;;19.41;57.32;102214.22;7389483;19;1446;-36
2024/02/18 09:42:44;;;;;;;;;;;;;;;19.50;57.15;102220.78;7385937;19;1415;-35
2024/02/18 09:45:15;;;;;;;;;;;;;;;19.67;57.02;102215.13;7385168;19;1838;-35
2024/02/18 09:47:47;;;;;;;;;;;;;;;19.75;56.51;102212.81;7390734;19;1104;-35
2024/02/18 09:50:15;;;;;;;;;;;;;;;19.82;56.34;102226.69;7391993;19;1747;-35
2024/02/18 09:52:44;;;;;;;;;;;;;;;19.91;56.15;102233.25;7387384;19;1924;-36
2024/02/18 09:55:13;;;;;;;;;;;;;;;19.89;56.29;102214.56;7390843;19;1665;-35
2024/02/18 09:57:41;;;;;;;;;;;;;;;19.90;56.42;102215.44;7390563;19;1727;-35
2024/02/18 10:00:11;;;;;;;;;;;;;;;19.92;56.23;102224.25;7390769;19;1264;-36
2024/02/18 10:02:42;;;;;;;;;;;;;;;19.89;56.39;102200.28;7391064;19;1026;-35
2024/02/18 10:05:11;;;;;;;;;;;;;;;19.94;56.32;102198.16;7389860;19;1846;-35
2024/02/18 10:07:40;;;;;;;;;;;;;;;19.91;56.28;102179.56;7390700;19;1838;-36
2024/02/18 10:10:09;;;;;;;;;;;;;;;19.95;56.18;102189.09;7389221;19;1521;-35
2024/02/18 10:12:38;;;;;;;;;;;;;;;20.00;56.20;102201.25;7386487;19;1795;-36
2024/02/18 10:15:07;;;;;;;;;;;;;;;19.99;56.18;102183.41;7391573;19;1044;-35
2024/02/18 10:17:36;;;;;;;;;;;;;;;20.02;56.04;102201.16;7386277;19;1438;-36
2024/02/18 10:20:08;;;;;;;;;;;;;;;20.01;56.21;102207.47;7374165;19;1601;-35
2024/02/18 10:22:36;;;;;;;;;;;;;;;20.00;56.25;102195.03;7387082;19;1004;-36
2024/02/18 10:25:07;;;;;;;;;;;;;;;19.66;56.91;102181.22;7389578;19;1872;-36
2024/02/18 10:27:38;;;;;;;;;;;;;;;19.26;58.01;102184.78;7388821;19;1877;-36
2024/02/18 10:30:07;;;;;;;;;;;;;;;18.98;58.62;102185.78;7387422;19;2529;-35
2024/02/18 10:32:36;;;;;;;;;;;;;;;19.24;58.32;102180.50;7387377;19;1394;-35
2024/02/18 10:35:05;;;;;;;;;;;;;;;19.44;57.62;102188.06;7389297;19;1468;-35
2024/02/18 10:37:40;;;;;;;;;;;;;;;19.75;56.92;102194.03;7387087;19;1554;-35
2024/02/18 10:40:12;;;;;;;;;;;;;;;19.65;56.96;102190.22;7389805;19;1076;-36
2024/02/18 10:42:42;;;;;;;;;;;;;;;19.36;57.90;102195.75;7390530;19;1017;-35
2024/02/18 10:45:12;;;;;;;;;;;;;;;19.14;58.22;102196.34;7388529;19;1861;-35
2024/02/18 10:47:42;;;;;;;;;;;;;;;19.32;57.98;102193.38;7388780;19;1897;-36
2024/02/18 10:50:12;;;;;;;;;;;;;;;19.58;57.11;102180.91;7388548;19;1414;-35
2024/02/18 10:52:46;;;;;;;;;;;;;;;20.00;56.09;102178.91;7388878;19;1222;-35
2024/02/18 10:55:19;;;;;;;;;;;;;;;20.15;55.74;102185.88;7389645;19;1837;-35
2024/02/18 10:57:48;;;;;;;;;;;;;;;20.26;55.71;102196.72;7389067;19;1264;-35
2024/02/18 11:00:17;;;;;;;;;;;;;;;20.29;55.52;102182.19;7388081;19;1719;-35
2024/02/18 11:02:50;;;;;;;;;;;;;;;20.35;55.49;102179.09;7388787;19;1667;-35
2024/02/18 11:05:19;;;;;;;;;;;;;;;20.23;55.61;102180.84;7387334;19;1849;-36
2024/02/18 11:07:50;;;;;;;;;;;;;;;20.15;55.74;102161.69;7389134;19;1185;-36
2024/02/18 11:10:19;;;;;;;;;;;;;;;20.13;55.77;102163.63;7389367;19;1760;-36
2024/02/18 11:12:49;;;;;;;;;;;;;;;20.11;55.85;102160.19;7388771;19;1196;-35
2024/02/18 11:15:17;;;;;;;;;;;;;;;20.14;55.81;102169.88;7387916;19;2163;-36
2024/02/18 11:17:46;;;;;;;;;;;;;;;20.18;55.80;102174.06;7389207;19;1097;-35
2024/02/18 11:20:15;;;;;;;;;;;;;;;20.22;55.78;102178.25;7370676;19;1818;-36
2024/02/18 11:22:44;;;;;;;;;;;;;;;20.20;55.38;102173.00;7383949;19;1413;-36
2024/02/18 11:25:15;;;;;;;;;;;;;;;20.03;55.22;102174.19;7387125;19;1849;-36
2024/02/18 11:27:43;;;;;;;;;;;;;;;19.88;53.77;102174.41;7387440;19;1508;-35
2024/02/18 11:30:12;;;;;;;;;;;;;;;19.88;53.11;102169.03;7387470;19;1442;-35
2024/02/18 11:32:41;;;;;;;;;;;;;;;19.78;52.97;102176.88;7386698;19;1825;-36
2024/02/18 11:35:10;;;;;;;;;;;;;;;19.81;53.06;102174.81;7385831;19;1771;-36
2024/02/18 11:37:40;;;;;;;;;;;;;;;19.60;53.82;102176.28;7386485;19;1668;-36
2024/02/18 11:40:09;;;;;;;;;;;;;;;19.50;54.02;102176.06;7387975;19;1887;-36
2024/02/18 11:42:41;;;;;;;;;;;;;;;19.52;53.93;102178.59;7387605;19;1689;-36
2024/02/18 11:45:13;;;;;;;;;;;;;;;19.73;53.48;102170.94;7388378;19;1863;-36
2024/02/18 11:47:46;;;;;;;;;;;;;;;19.67;53.29;102175.72;7388201;19;948;-34
2024/02/18 11:50:15;;;;;;;;;;;;;;;19.55;53.66;102171.22;7387251;19;1592;-35
2024/02/18 11:52:44;;;;;;;;;;;;;;;19.63;53.46;102182.28;7385206;19;1596;-35
2024/02/18 11:55:17;;;;;;;;;;;;;;;19.66;53.40;102175.88;7386034;19;1856;-35
2024/02/18 11:57:49;;;;;;;;;;;;;;;19.70;53.24;102165.78;7385326;19;1497;-35
2024/02/18 12:00:19;;;;;;;;;;;;;;;19.77;53.19;102167.94;7387579;19;1660;-35
2024/02/18 12:02:51;;;;;;;;;;;;;;;19.61;53.56;102161.88;7387164;19;1354;-35
2024/02/18 12:05:20;;;;;;;;;;;;;;;19.55;53.62;102140.84;7386164;19;1845;-35
2024/02/18 12:07:49;;;;;;;;;;;;;;;19.68;53.57;102164.03;7385622;19;1742;-35
2024/02/18 12:10:18;;;;;;;;;;;;;;;19.78;53.23;102141.97;7385988;19;1224;-35
2024/02/18 12:12:50;;;;;;;;;;;;;;;19.93;52.55;102161.50;7385912;19;1512;-35
2024/02/18 12:15:23;;;;;;;;;;;;;;;19.99;52.26;102150.34;7386806;19;1138;-35
2024/02/18 12:17:52;;;;;;;;;;;;;;;20.01;52.36;102143.03;7385829;19;1605;-35
2024/02/18 12:20:22;;;;;;;;;;;;;;;20.02;52.35;102134.88;7372631;19;1116;-35
2024/02/18 12:22:51;;;;;;;;;;;;;;;20.04;52.41;102138.31;7383817;19;1498;-35
2024/02/18 12:25:20;;;;;;;;;;;;;;;20.05;52.21;102131.09;7386271;19;1910;-35
2024/02/18 12:27:51;;;;;;;;;;;;;;;19.88;52.87;102135.00;7384896;19;1418;-35
2024/02/18 12:30:21;;;;;;;;;;;;;;;19.51;51.74;102144.72;7386956;19;1483;-35
2024/02/18 12:32:51;;;;;;;;;;;;;;;19.52;51.37;102152.66;7388174;19;1288;-35
2024/02/18 12:35:19;;;;;;;;;;;;;;;19.26;51.93;102141.88;7392492;19;1157;-35
2024/02/18 12:37:47;;;;;;;;;;;;;;;19.49;51.26;102152.84;7390879;19;1821;-35
2024/02/18 12:40:17;;;;;;;;;;;;;;;19.61;51.04;102162.75;7393314;19;1193;-35
2024/02/18 12:42:45;;;;;;;;;;;;;;;19.62;51.46;102152.88;7393346;19;1394;-35
2024/02/18 12:45:24;;;;;;;;;;;;;;;19.31;52.25;102159.47;7393503;19;1169;-35
2024/02/18 12:47:53;;;;;;;;;;;;;;;19.33;51.46;102160.22;7392711;19;1553;-35
2024/02/18 12:50:21;;;;;;;;;;;;;;;19.45;51.02;102170.97;7392357;19;1290;-35
2024/02/18 12:52:50;;;;;;;;;;;;;;;19.55;50.49;102170.38;7393106;19;1489;-35
2024/02/18 12:55:18;;;;;;;;;;;;;;;19.77;50.28;102167.09;7391700;19;1588;-35